Metar z połowy godziny Komunikat METAR ze strony awiacja.imgw.pl Metar G30 EPKS METAR EPKS 170900Z 13010KT 9999 FEW040 26/15 Q1017 RMK 263 050 2/2=